sensor_id;sensor_type;location;lat;lon;timestamp;temperature;humidity
5118;DHT22;2578;51.622;7.046;2022-09-09T00:01:28;14.60;99.90
5118;DHT22;2578;51.622;7.046;2022-09-09T00:09:28;14.50;99.90
5118;DHT22;2578;51.622;7.046;2022-09-09T00:12:17;14.50;99.90
5118;DHT22;2578;51.622;7.046;2022-09-09T00:15:11;14.50;99.90
5118;DHT22;2578;51.622;7.046;2022-09-09T00:23:42;14.40;99.90
5118;DHT22;2578;51.622;7.046;2022-09-09T00:26:17;14.50;99.90
5118;DHT22;2578;51.622;7.046;2022-09-09T00:31:31;14.40;99.90
5118;DHT22;2578;51.622;7.046;2022-09-09T00:34:05;14.40;99.90
5118;DHT22;2578;51.622;7.046;2022-09-09T00:36:37;14.40;99.90
5118;DHT22;2578;51.622;7.046;2022-09-09T00:39:03;14.40;99.90
5118;DHT22;2578;51.622;7.046;2022-09-09T00:42:03;14.40;99.90
5118;DHT22;2578;51.622;7.046;2022-09-09T00:44:37;14.40;99.90
5118;DHT22;2578;51.622;7.046;2022-09-09T00:50:12;14.40;99.90
5118;DHT22;2578;51.622;7.046;2022-09-09T00:58:08;14.30;99.90
5118;DHT22;2578;51.622;7.046;2022-09-09T01:00:46;14.20;99.90
5118;DHT22;2578;51.622;7.046;2022-09-09T01:16:58;14.20;99.90
5118;DHT22;2578;51.622;7.046;2022-09-09T01:22:22;14.20;99.90
5118;DHT22;2578;51.622;7.046;2022-09-09T01:25:29;14.20;99.90
5118;DHT22;2578;51.622;7.046;2022-09-09T01:28:03;14.30;99.90
5118;DHT22;2578;51.622;7.046;2022-09-09T01:30:30;14.30;99.90
5118;DHT22;2578;51.622;7.046;2022-09-09T01:32:58;14.30;99.90
5118;DHT22;2578;51.622;7.046;2022-09-09T01:35:57;14.30;99.90
5118;DHT22;2578;51.622;7.046;2022-09-09T01:38:21;15.40;99.90
5118;DHT22;2578;51.622;7.046;2022-09-09T01:40:48;14.40;99.90
5118;DHT22;2578;51.622;7.046;2022-09-09T01:43:14;14.40;99.90
5118;DHT22;2578;51.622;7.046;2022-09-09T01:45:41;14.40;99.90
5118;DHT22;2578;51.622;7.046;2022-09-09T01:48:08;14.30;99.90
5118;DHT22;2578;51.622;7.046;2022-09-09T01:50:34;14.40;99.90
5118;DHT22;2578;51.622;7.046;2022-09-09T01:53:01;14.30;99.90
5118;DHT22;2578;51.622;7.046;2022-09-09T01:55:39;14.30;99.90
5118;DHT22;2578;51.622;7.046;2022-09-09T02:03:52;14.30;99.90
5118;DHT22;2578;51.622;7.046;2022-09-09T02:08:55;14.30;99.90
5118;DHT22;2578;51.622;7.046;2022-09-09T02:11:23;14.30;99.90
5118;DHT22;2578;51.622;7.046;2022-09-09T02:13:54;14.30;99.90
5118;DHT22;2578;51.622;7.046;2022-09-09T02:18:55;14.20;99.90
5118;DHT22;2578;51.622;7.046;2022-09-09T02:21:22;14.50;99.90
5118;DHT22;2578;51.622;7.046;2022-09-09T02:23:50;14.20;99.90
5118;DHT22;2578;51.622;7.046;2022-09-09T02:26:17;14.20;99.90
5118;DHT22;2578;51.622;7.046;2022-09-09T02:28:49;14.20;99.90
5118;DHT22;2578;51.622;7.046;2022-09-09T02:31:18;14.30;99.90
5118;DHT22;2578;51.622;7.046;2022-09-09T02:33:47;14.30;99.90
5118;DHT22;2578;51.622;7.046;2022-09-09T02:36:15;14.40;99.90
5118;DHT22;2578;51.622;7.046;2022-09-09T02:38:51;14.40;99.90
5118;DHT22;2578;51.622;7.046;2022-09-09T02:41:37;14.50;99.90
5118;DHT22;2578;51.622;7.046;2022-09-09T02:44:11;14.50;99.90
5118;DHT22;2578;51.622;7.046;2022-09-09T02:49:21;14.60;99.90
5118;DHT22;2578;51.622;7.046;2022-09-09T02:54:31;14.70;99.90
5118;DHT22;2578;51.622;7.046;2022-09-09T02:59:27;14.80;99.90
5118;DHT22;2578;51.622;7.046;2022-09-09T03:01:53;14.90;99.90
5118;DHT22;2578;51.622;7.046;2022-09-09T03:04:19;14.90;99.90
5118;DHT22;2578;51.622;7.046;2022-09-09T03:06:44;14.90;99.90
5118;DHT22;2578;51.622;7.046;2022-09-09T03:09:10;15.00;99.90
5118;DHT22;2578;51.622;7.046;2022-09-09T03:11:36;15.00;99.90
5118;DHT22;2578;51.622;7.046;2022-09-09T03:14:04;15.00;99.90
5118;DHT22;2578;51.622;7.046;2022-09-09T03:16:30;15.00;99.90
5118;DHT22;2578;51.622;7.046;2022-09-09T03:18:55;15.00;99.90
5118;DHT22;2578;51.622;7.046;2022-09-09T03:21:21;15.00;99.90
5118;DHT22;2578;51.622;7.046;2022-09-09T03:23:47;14.90;99.90
5118;DHT22;2578;51.622;7.046;2022-09-09T03:26:13;14.90;99.90
5118;DHT22;2578;51.622;7.046;2022-09-09T03:28:41;14.90;99.90
5118;DHT22;2578;51.622;7.046;2022-09-09T03:31:07;14.80;99.90
5118;DHT22;2578;51.622;7.046;2022-09-09T03:33:36;14.80;99.90
5118;DHT22;2578;51.622;7.046;2022-09-09T03:36:02;14.80;99.90
5118;DHT22;2578;51.622;7.046;2022-09-09T03:38:28;14.80;99.90
5118;DHT22;2578;51.622;7.046;2022-09-09T03:40:55;14.70;99.90
5118;DHT22;2578;51.622;7.046;2022-09-09T03:43:23;14.70;99.90
5118;DHT22;2578;51.622;7.046;2022-09-09T03:45:49;14.70;99.90
5118;DHT22;2578;51.622;7.046;2022-09-09T03:48:16;14.60;99.90
5118;DHT22;2578;51.622;7.046;2022-09-09T03:50:46;14.60;99.90
5118;DHT22;2578;51.622;7.046;2022-09-09T03:53:12;14.60;99.90
5118;DHT22;2578;51.622;7.046;2022-09-09T03:55:38;14.60;99.90
5118;DHT22;2578;51.622;7.046;2022-09-09T03:58:04;14.70;99.90
5118;DHT22;2578;51.622;7.046;2022-09-09T04:00:30;14.70;99.90
5118;DHT22;2578;51.622;7.046;2022-09-09T04:02:55;14.70;99.90
5118;DHT22;2578;51.622;7.046;2022-09-09T04:05:22;14.70;99.90
5118;DHT22;2578;51.622;7.046;2022-09-09T04:07:47;14.70;99.90
5118;DHT22;2578;51.622;7.046;2022-09-09T04:10:13;14.70;99.90
5118;DHT22;2578;51.622;7.046;2022-09-09T04:12:39;14.80;99.90
5118;DHT22;2578;51.622;7.046;2022-09-09T04:15:05;14.70;99.90
5118;DHT22;2578;51.622;7.046;2022-09-09T04:17:30;14.80;99.90
5118;DHT22;2578;51.622;7.046;2022-09-09T04:19:56;13.20;99.90
5118;DHT22;2578;51.622;7.046;2022-09-09T04:22:22;14.80;99.90
5118;DHT22;2578;51.622;7.046;2022-09-09T04:24:48;14.80;99.90
5118;DHT22;2578;51.622;7.046;2022-09-09T04:27:14;14.80;99.90
5118;DHT22;2578;51.622;7.046;2022-09-09T04:29:39;14.70;99.90
5118;DHT22;2578;51.622;7.046;2022-09-09T04:32:05;14.70;99.90
5118;DHT22;2578;51.622;7.046;2022-09-09T04:34:30;14.70;99.90
5118;DHT22;2578;51.622;7.046;2022-09-09T04:36:56;14.70;99.90
5118;DHT22;2578;51.622;7.046;2022-09-09T04:39:22;14.80;99.90
5118;DHT22;2578;51.622;7.046;2022-09-09T04:41:48;14.80;99.90
5118;DHT22;2578;51.622;7.046;2022-09-09T04:44:14;14.80;99.90
5118;DHT22;2578;51.622;7.046;2022-09-09T04:46:39;14.90;99.90
5118;DHT22;2578;51.622;7.046;2022-09-09T04:49:06;14.80;99.90
5118;DHT22;2578;51.622;7.046;2022-09-09T04:51:32;14.80;99.90
5118;DHT22;2578;51.622;7.046;2022-09-09T04:53:58;14.80;99.90
5118;DHT22;2578;51.622;7.046;2022-09-09T04:56:23;14.90;99.90
5118;DHT22;2578;51.622;7.046;2022-09-09T04:58:52;17.40;99.90
5118;DHT22;2578;51.622;7.046;2022-09-09T05:01:20;14.90;99.90
5118;DHT22;2578;51.622;7.046;2022-09-09T05:03:47;15.20;99.90
5118;DHT22;2578;51.622;7.046;2022-09-09T05:06:18;15.00;99.90
5118;DHT22;2578;51.622;7.046;2022-09-09T05:08:44;15.10;99.90
5118;DHT22;2578;51.622;7.046;2022-09-09T05:11:31;15.10;99.90
5118;DHT22;2578;51.622;7.046;2022-09-09T05:13:57;15.20;99.90
5118;DHT22;2578;51.622;7.046;2022-09-09T05:16:23;15.20;99.90
5118;DHT22;2578;51.622;7.046;2022-09-09T05:18:49;15.20;99.90
5118;DHT22;2578;51.622;7.046;2022-09-09T05:21:16;15.30;99.90
5118;DHT22;2578;51.622;7.046;2022-09-09T05:23:44;15.30;99.90
5118;DHT22;2578;51.622;7.046;2022-09-09T05:26:13;15.30;99.90
5118;DHT22;2578;51.622;7.046;2022-09-09T05:28:39;15.40;99.90
5118;DHT22;2578;51.622;7.046;2022-09-09T05:31:07;15.40;99.90
5118;DHT22;2578;51.622;7.046;2022-09-09T05:33:40;15.40;99.90
5118;DHT22;2578;51.622;7.046;2022-09-09T05:36:08;15.50;99.90
5118;DHT22;2578;51.622;7.046;2022-09-09T05:38:34;15.50;99.90
5118;DHT22;2578;51.622;7.046;2022-09-09T05:41:01;15.50;99.90
5118;DHT22;2578;51.622;7.046;2022-09-09T05:43:28;15.60;99.90
5118;DHT22;2578;51.622;7.046;2022-09-09T05:48:31;15.70;99.90
5118;DHT22;2578;51.622;7.046;2022-09-09T05:50:58;15.70;99.90
5118;DHT22;2578;51.622;7.046;2022-09-09T05:53:24;15.80;99.90
5118;DHT22;2578;51.622;7.046;2022-09-09T05:55:49;15.80;99.90
5118;DHT22;2578;51.622;7.046;2022-09-09T05:58:15;18.20;99.90
5118;DHT22;2578;51.622;7.046;2022-09-09T06:00:42;16.00;99.90
5118;DHT22;2578;51.622;7.046;2022-09-09T06:03:11;16.00;99.90
5118;DHT22;2578;51.622;7.046;2022-09-09T06:05:36;16.00;99.90
5118;DHT22;2578;51.622;7.046;2022-09-09T06:08:03;16.00;99.90
5118;DHT22;2578;51.622;7.046;2022-09-09T06:10:28;16.00;99.90
5118;DHT22;2578;51.622;7.046;2022-09-09T06:12:54;16.00;99.90
5118;DHT22;2578;51.622;7.046;2022-09-09T06:15:20;16.00;99.90
5118;DHT22;2578;51.622;7.046;2022-09-09T06:17:45;16.00;99.90
5118;DHT22;2578;51.622;7.046;2022-09-09T06:20:11;16.00;99.90
5118;DHT22;2578;51.622;7.046;2022-09-09T06:22:39;16.00;99.90
5118;DHT22;2578;51.622;7.046;2022-09-09T06:25:07;16.10;99.90
5118;DHT22;2578;51.622;7.046;2022-09-09T06:27:33;16.10;99.90
5118;DHT22;2578;51.622;7.046;2022-09-09T06:29:58;16.20;99.90
5118;DHT22;2578;51.622;7.046;2022-09-09T06:32:24;16.20;99.90
5118;DHT22;2578;51.622;7.046;2022-09-09T06:34:50;16.30;99.90
5118;DHT22;2578;51.622;7.046;2022-09-09T06:37:15;16.40;99.90
5118;DHT22;2578;51.622;7.046;2022-09-09T06:39:41;16.60;99.90
5118;DHT22;2578;51.622;7.046;2022-09-09T06:42:07;16.60;99.90
5118;DHT22;2578;51.622;7.046;2022-09-09T06:44:33;16.70;99.90
5118;DHT22;2578;51.622;7.046;2022-09-09T06:46:59;16.80;99.90
5118;DHT22;2578;51.622;7.046;2022-09-09T06:49:25;17.00;99.90
5118;DHT22;2578;51.622;7.046;2022-09-09T06:51:50;17.00;99.90
5118;DHT22;2578;51.622;7.046;2022-09-09T06:54:17;17.00;99.90
5118;DHT22;2578;51.622;7.046;2022-09-09T06:56:43;17.00;99.90
5118;DHT22;2578;51.622;7.046;2022-09-09T06:59:10;17.10;99.90
5118;DHT22;2578;51.622;7.046;2022-09-09T07:01:42;17.10;99.90
5118;DHT22;2578;51.622;7.046;2022-09-09T07:04:09;17.20;99.90
5118;DHT22;2578;51.622;7.046;2022-09-09T07:06:39;17.20;99.90
5118;DHT22;2578;51.622;7.046;2022-09-09T07:09:07;17.50;99.90
5118;DHT22;2578;51.622;7.046;2022-09-09T07:11:38;17.50;99.90
5118;DHT22;2578;51.622;7.046;2022-09-09T07:14:04;17.70;99.90
5118;DHT22;2578;51.622;7.046;2022-09-09T07:16:29;17.80;99.90
5118;DHT22;2578;51.622;7.046;2022-09-09T07:18:57;17.80;99.90
5118;DHT22;2578;51.622;7.046;2022-09-09T07:21:26;17.80;99.90
5118;DHT22;2578;51.622;7.046;2022-09-09T07:23:53;17.90;99.90
5118;DHT22;2578;51.622;7.046;2022-09-09T07:26:21;18.00;99.90
5118;DHT22;2578;51.622;7.046;2022-09-09T07:28:47;18.10;99.90
5118;DHT22;2578;51.622;7.046;2022-09-09T07:31:16;18.20;99.90
5118;DHT22;2578;51.622;7.046;2022-09-09T07:33:43;18.20;99.90
5118;DHT22;2578;51.622;7.046;2022-09-09T07:38:47;18.10;99.90
5118;DHT22;2578;51.622;7.046;2022-09-09T07:41:19;18.10;99.90
5118;DHT22;2578;51.622;7.046;2022-09-09T07:43:46;18.20;99.90
5118;DHT22;2578;51.622;7.046;2022-09-09T07:46:14;18.30;99.90
5118;DHT22;2578;51.622;7.046;2022-09-09T07:48:45;18.60;99.90
5118;DHT22;2578;51.622;7.046;2022-09-09T07:51:14;18.90;99.90
5118;DHT22;2578;51.622;7.046;2022-09-09T07:53:43;19.00;99.90
5118;DHT22;2578;51.622;7.046;2022-09-09T07:56:12;19.00;99.90
5118;DHT22;2578;51.622;7.046;2022-09-09T07:58:39;19.20;99.90
5118;DHT22;2578;51.622;7.046;2022-09-09T08:01:15;19.40;99.90
5118;DHT22;2578;51.622;7.046;2022-09-09T08:03:44;19.50;99.90
5118;DHT22;2578;51.622;7.046;2022-09-09T08:06:10;19.50;99.90
5118;DHT22;2578;51.622;7.046;2022-09-09T08:08:38;18.90;99.90
5118;DHT22;2578;51.622;7.046;2022-09-09T08:11:11;18.70;99.90
5118;DHT22;2578;51.622;7.046;2022-09-09T08:13:38;18.50;99.90
5118;DHT22;2578;51.622;7.046;2022-09-09T08:18:31;18.20;99.90
5118;DHT22;2578;51.622;7.046;2022-09-09T08:20:56;18.00;99.90
5118;DHT22;2578;51.622;7.046;2022-09-09T08:23:22;18.00;99.90
5118;DHT22;2578;51.622;7.046;2022-09-09T08:25:48;18.00;99.90
5118;DHT22;2578;51.622;7.046;2022-09-09T08:28:14;18.10;99.90
5118;DHT22;2578;51.622;7.046;2022-09-09T08:30:39;18.20;99.90
5118;DHT22;2578;51.622;7.046;2022-09-09T08:33:05;18.20;99.90
5118;DHT22;2578;51.622;7.046;2022-09-09T08:35:31;18.20;99.90
5118;DHT22;2578;51.622;7.046;2022-09-09T08:37:58;18.20;99.90
5118;DHT22;2578;51.622;7.046;2022-09-09T08:40:29;18.10;99.90
5118;DHT22;2578;51.622;7.046;2022-09-09T08:42:59;18.30;99.90
5118;DHT22;2578;51.622;7.046;2022-09-09T08:48:02;19.10;99.90
5118;DHT22;2578;51.622;7.046;2022-09-09T08:50:36;19.40;99.90
5118;DHT22;2578;51.622;7.046;2022-09-09T08:53:11;19.30;99.90
5118;DHT22;2578;51.622;7.046;2022-09-09T08:58:20;19.30;99.90
5118;DHT22;2578;51.622;7.046;2022-09-09T09:11:25;19.20;99.90
5118;DHT22;2578;51.622;7.046;2022-09-09T09:13:57;19.80;99.90
5118;DHT22;2578;51.622;7.046;2022-09-09T09:18:53;21.30;99.90
5118;DHT22;2578;51.622;7.046;2022-09-09T09:24:00;22.00;99.90
5118;DHT22;2578;51.622;7.046;2022-09-09T09:26:33;22.50;99.90
5118;DHT22;2578;51.622;7.046;2022-09-09T09:29:08;22.80;99.90
5118;DHT22;2578;51.622;7.046;2022-09-09T09:31:35;22.80;99.90
5118;DHT22;2578;51.622;7.046;2022-09-09T09:34:00;22.90;99.90
5118;DHT22;2578;51.622;7.046;2022-09-09T09:36:45;22.90;99.90
5118;DHT22;2578;51.622;7.046;2022-09-09T09:41:49;22.50;99.90
5118;DHT22;2578;51.622;7.046;2022-09-09T09:44:25;22.10;99.90
5118;DHT22;2578;51.622;7.046;2022-09-09T09:46:52;21.60;99.90
5118;DHT22;2578;51.622;7.046;2022-09-09T09:49:18;21.10;99.90
5118;DHT22;2578;51.622;7.046;2022-09-09T09:51:44;20.90;99.90
5118;DHT22;2578;51.622;7.046;2022-09-09T09:56:39;20.90;99.90
5118;DHT22;2578;51.622;7.046;2022-09-09T09:59:18;21.10;99.90
5118;DHT22;2578;51.622;7.046;2022-09-09T10:01:44;21.10;99.90
5118;DHT22;2578;51.622;7.046;2022-09-09T10:06:38;21.40;99.90
5118;DHT22;2578;51.622;7.046;2022-09-09T10:09:28;21.20;99.90
5118;DHT22;2578;51.622;7.046;2022-09-09T10:22:45;21.30;99.90
5118;DHT22;2578;51.622;7.046;2022-09-09T10:25:23;21.10;99.90
5118;DHT22;2578;51.622;7.046;2022-09-09T10:33:33;20.80;99.90
5118;DHT22;2578;51.622;7.046;2022-09-09T10:36:21;20.80;99.90
5118;DHT22;2578;51.622;7.046;2022-09-09T10:45:00;21.40;99.90
5118;DHT22;2578;51.622;7.046;2022-09-09T10:47:59;22.90;99.90
5118;DHT22;2578;51.622;7.046;2022-09-09T10:56:11;24.10;86.10
5118;DHT22;2578;51.622;7.046;2022-09-09T11:01:25;22.90;90.00
5118;DHT22;2578;51.622;7.046;2022-09-09T11:04:00;22.20;90.50
5118;DHT22;2578;51.622;7.046;2022-09-09T11:06:32;21.90;90.30
5118;DHT22;2578;51.622;7.046;2022-09-09T11:09:02;21.10;93.30
5118;DHT22;2578;51.622;7.046;2022-09-09T11:11:36;21.00;93.20
5118;DHT22;2578;51.622;7.046;2022-09-09T11:14:12;20.70;94.30
5118;DHT22;2578;51.622;7.046;2022-09-09T11:16:50;20.70;95.80
5118;DHT22;2578;51.622;7.046;2022-09-09T11:19:24;20.60;99.90
5118;DHT22;2578;51.622;7.046;2022-09-09T11:21:50;20.70;99.00
5118;DHT22;2578;51.622;7.046;2022-09-09T11:24:39;20.70;99.50
5118;DHT22;2578;51.622;7.046;2022-09-09T11:27:10;20.70;99.50
5118;DHT22;2578;51.622;7.046;2022-09-09T11:41:36;21.20;99.90
5118;DHT22;2578;51.622;7.046;2022-09-09T11:44:17;21.40;99.90
5118;DHT22;2578;51.622;7.046;2022-09-09T11:46:45;21.40;99.90
5118;DHT22;2578;51.622;7.046;2022-09-09T11:49:29;21.50;99.90
5118;DHT22;2578;51.622;7.046;2022-09-09T11:51:56;21.50;99.90
5118;DHT22;2578;51.622;7.046;2022-09-09T11:54:31;21.40;99.90
5118;DHT22;2578;51.622;7.046;2022-09-09T11:56:57;21.50;99.90
5118;DHT22;2578;51.622;7.046;2022-09-09T11:59:26;21.70;98.50
5118;DHT22;2578;51.622;7.046;2022-09-09T12:12:26;21.40;99.90
5118;DHT22;2578;51.622;7.046;2022-09-09T12:15:00;21.90;99.90
5118;DHT22;2578;51.622;7.046;2022-09-09T12:17:28;22.50;98.10
5118;DHT22;2578;51.622;7.046;2022-09-09T12:20:18;22.20;97.90
5118;DHT22;2578;51.622;7.046;2022-09-09T12:28:25;22.20;99.90
5118;DHT22;2578;51.622;7.046;2022-09-09T12:31:06;21.90;99.90
5118;DHT22;2578;51.622;7.046;2022-09-09T12:33:38;22.20;99.90
5118;DHT22;2578;51.622;7.046;2022-09-09T12:36:12;22.60;99.90
5118;DHT22;2578;51.622;7.046;2022-09-09T12:38:41;23.10;99.90
5118;DHT22;2578;51.622;7.046;2022-09-09T12:41:21;23.10;99.90
5118;DHT22;2578;51.622;7.046;2022-09-09T12:43:48;22.70;99.90
5118;DHT22;2578;51.622;7.046;2022-09-09T12:46:24;22.30;99.90
5118;DHT22;2578;51.622;7.046;2022-09-09T12:48:53;21.90;99.90
5118;DHT22;2578;51.622;7.046;2022-09-09T12:51:25;21.50;99.90
5118;DHT22;2578;51.622;7.046;2022-09-09T12:53:52;21.20;99.90
5118;DHT22;2578;51.622;7.046;2022-09-09T12:56:20;21.00;99.90
5118;DHT22;2578;51.622;7.046;2022-09-09T12:58:50;21.00;99.90
5118;DHT22;2578;51.622;7.046;2022-09-09T13:01:25;21.00;99.90
5118;DHT22;2578;51.622;7.046;2022-09-09T13:03:51;20.90;99.90
5118;DHT22;2578;51.622;7.046;2022-09-09T13:06:28;20.80;99.90
5118;DHT22;2578;51.622;7.046;2022-09-09T13:08:56;20.80;99.90
5118;DHT22;2578;51.622;7.046;2022-09-09T13:11:28;19.20;99.90
5118;DHT22;2578;51.622;7.046;2022-09-09T13:13:56;19.10;99.90
5118;DHT22;2578;51.622;7.046;2022-09-09T13:16:29;18.00;99.90
5118;DHT22;2578;51.622;7.046;2022-09-09T13:19:09;17.10;99.90
5118;DHT22;2578;51.622;7.046;2022-09-09T13:21:39;17.10;99.90
5118;DHT22;2578;51.622;7.046;2022-09-09T13:24:19;17.10;99.90
5118;DHT22;2578;51.622;7.046;2022-09-09T13:26:55;17.10;99.90
5118;DHT22;2578;51.622;7.046;2022-09-09T13:29:22;17.20;99.90
5118;DHT22;2578;51.622;7.046;2022-09-09T13:31:48;16.70;99.90
5118;DHT22;2578;51.622;7.046;2022-09-09T13:34:34;16.70;99.90
5118;DHT22;2578;51.622;7.046;2022-09-09T13:37:05;16.70;99.90
5118;DHT22;2578;51.622;7.046;2022-09-09T13:39:34;16.80;99.90
5118;DHT22;2578;51.622;7.046;2022-09-09T13:42:01;16.80;99.90
5118;DHT22;2578;51.622;7.046;2022-09-09T13:44:34;16.70;99.90
5118;DHT22;2578;51.622;7.046;2022-09-09T13:47:04;16.80;99.90
5118;DHT22;2578;51.622;7.046;2022-09-09T13:49:30;17.10;99.90
5118;DHT22;2578;51.622;7.046;2022-09-09T13:52:13;17.20;99.90
5118;DHT22;2578;51.622;7.046;2022-09-09T13:54:40;17.30;99.90
5118;DHT22;2578;51.622;7.046;2022-09-09T13:57:19;17.60;99.90
5118;DHT22;2578;51.622;7.046;2022-09-09T13:59:46;18.20;99.90
5118;DHT22;2578;51.622;7.046;2022-09-09T14:02:12;18.30;99.90
5118;DHT22;2578;51.622;7.046;2022-09-09T14:04:38;18.30;99.90
5118;DHT22;2578;51.622;7.046;2022-09-09T14:07:11;18.30;99.90
5118;DHT22;2578;51.622;7.046;2022-09-09T14:09:37;18.80;99.90
5118;DHT22;2578;51.622;7.046;2022-09-09T14:12:03;18.80;99.90
5118;DHT22;2578;51.622;7.046;2022-09-09T14:14:30;19.00;99.90
5118;DHT22;2578;51.622;7.046;2022-09-09T14:16:55;19.30;99.90
5118;DHT22;2578;51.622;7.046;2022-09-09T14:19:21;19.90;99.90
5118;DHT22;2578;51.622;7.046;2022-09-09T14:21:46;20.00;99.90
5118;DHT22;2578;51.622;7.046;2022-09-09T14:24:12;20.30;99.90
5118;DHT22;2578;51.622;7.046;2022-09-09T14:26:38;20.60;99.90
5118;DHT22;2578;51.622;7.046;2022-09-09T14:29:03;21.20;99.90
5118;DHT22;2578;51.622;7.046;2022-09-09T14:31:29;21.20;99.90
5118;DHT22;2578;51.622;7.046;2022-09-09T14:33:55;21.40;99.90
5118;DHT22;2578;51.622;7.046;2022-09-09T14:36:21;21.70;99.90
5118;DHT22;2578;51.622;7.046;2022-09-09T14:38:46;22.00;99.90
5118;DHT22;2578;51.622;7.046;2022-09-09T14:41:14;22.00;99.90
5118;DHT22;2578;51.622;7.046;2022-09-09T14:43:42;21.60;99.90
5118;DHT22;2578;51.622;7.046;2022-09-09T14:46:10;21.20;99.90
5118;DHT22;2578;51.622;7.046;2022-09-09T14:48:36;20.90;99.90
5118;DHT22;2578;51.622;7.046;2022-09-09T14:53:32;20.50;99.90
5118;DHT22;2578;51.622;7.046;2022-09-09T14:56:09;20.40;99.90
5118;DHT22;2578;51.622;7.046;2022-09-09T14:58:36;20.00;99.90
5118;DHT22;2578;51.622;7.046;2022-09-09T15:01:17;19.60;99.90
5118;DHT22;2578;51.622;7.046;2022-09-09T15:03:49;19.50;99.90
5118;DHT22;2578;51.622;7.046;2022-09-09T15:06:15;19.30;99.90
5118;DHT22;2578;51.622;7.046;2022-09-09T15:08:42;18.70;99.90
5118;DHT22;2578;51.622;7.046;2022-09-09T15:11:10;18.30;99.90
5118;DHT22;2578;51.622;7.046;2022-09-09T15:13:36;18.00;99.90
5118;DHT22;2578;51.622;7.046;2022-09-09T15:16:07;17.80;99.90
5118;DHT22;2578;51.622;7.046;2022-09-09T15:18:33;17.40;99.90
5118;DHT22;2578;51.622;7.046;2022-09-09T15:21:08;16.80;99.90
5118;DHT22;2578;51.622;7.046;2022-09-09T15:23:35;16.60;99.90
5118;DHT22;2578;51.622;7.046;2022-09-09T15:26:02;16.20;99.90
5118;DHT22;2578;51.622;7.046;2022-09-09T15:28:28;15.90;99.90
5118;DHT22;2578;51.622;7.046;2022-09-09T15:30:54;15.60;99.90
5118;DHT22;2578;51.622;7.046;2022-09-09T15:33:21;15.60;99.90
5118;DHT22;2578;51.622;7.046;2022-09-09T15:35:48;15.60;99.90
5118;DHT22;2578;51.622;7.046;2022-09-09T15:38:14;15.60;99.90
5118;DHT22;2578;51.622;7.046;2022-09-09T15:40:40;15.60;99.90
5118;DHT22;2578;51.622;7.046;2022-09-09T15:43:06;15.60;99.90
5118;DHT22;2578;51.622;7.046;2022-09-09T15:45:33;15.60;99.90
5118;DHT22;2578;51.622;7.046;2022-09-09T15:48:02;15.60;99.90
5118;DHT22;2578;51.622;7.046;2022-09-09T15:50:29;15.60;99.90
5118;DHT22;2578;51.622;7.046;2022-09-09T15:53:01;15.60;99.90
5118;DHT22;2578;51.622;7.046;2022-09-09T15:55:26;15.50;99.90
5118;DHT22;2578;51.622;7.046;2022-09-09T15:57:52;15.50;99.90
5118;DHT22;2578;51.622;7.046;2022-09-09T16:00:19;15.50;99.90
5118;DHT22;2578;51.622;7.046;2022-09-09T16:02:47;15.50;99.90
5118;DHT22;2578;51.622;7.046;2022-09-09T16:05:12;15.50;99.90
5118;DHT22;2578;51.622;7.046;2022-09-09T16:07:38;15.60;99.90
5118;DHT22;2578;51.622;7.046;2022-09-09T16:10:04;15.70;99.90
5118;DHT22;2578;51.622;7.046;2022-09-09T16:12:31;15.70;99.90
5118;DHT22;2578;51.622;7.046;2022-09-09T16:14:56;15.80;99.90
5118;DHT22;2578;51.622;7.046;2022-09-09T16:17:22;15.90;99.90
5118;DHT22;2578;51.622;7.046;2022-09-09T16:19:47;16.20;99.90
5118;DHT22;2578;51.622;7.046;2022-09-09T16:22:13;16.30;99.90
5118;DHT22;2578;51.622;7.046;2022-09-09T16:24:41;16.50;99.90
5118;DHT22;2578;51.622;7.046;2022-09-09T16:27:06;16.60;99.90
5118;DHT22;2578;51.622;7.046;2022-09-09T16:29:32;16.80;99.90
5118;DHT22;2578;51.622;7.046;2022-09-09T16:31:58;16.70;99.90
5118;DHT22;2578;51.622;7.046;2022-09-09T16:34:36;16.80;99.90
5118;DHT22;2578;51.622;7.046;2022-09-09T16:37:03;16.90;99.90
5118;DHT22;2578;51.622;7.046;2022-09-09T16:39:29;17.90;99.90
5118;DHT22;2578;51.622;7.046;2022-09-09T16:41:54;16.80;99.90
5118;DHT22;2578;51.622;7.046;2022-09-09T16:44:20;16.80;99.90
5118;DHT22;2578;51.622;7.046;2022-09-09T16:46:47;16.70;99.90
5118;DHT22;2578;51.622;7.046;2022-09-09T16:49:14;16.60;99.90
5118;DHT22;2578;51.622;7.046;2022-09-09T16:51:48;16.50;99.90
5118;DHT22;2578;51.622;7.046;2022-09-09T16:54:16;16.40;99.90
5118;DHT22;2578;51.622;7.046;2022-09-09T16:56:44;16.40;99.90
5118;DHT22;2578;51.622;7.046;2022-09-09T16:59:15;16.30;99.90
5118;DHT22;2578;51.622;7.046;2022-09-09T17:01:43;16.30;99.90
5118;DHT22;2578;51.622;7.046;2022-09-09T17:04:14;16.20;99.90
5118;DHT22;2578;51.622;7.046;2022-09-09T17:06:42;16.20;99.90
5118;DHT22;2578;51.622;7.046;2022-09-09T17:09:11;16.10;99.90
5118;DHT22;2578;51.622;7.046;2022-09-09T17:11:40;16.10;99.90
5118;DHT22;2578;51.622;7.046;2022-09-09T17:14:08;16.10;99.90
5118;DHT22;2578;51.622;7.046;2022-09-09T17:16:35;16.00;99.90
5118;DHT22;2578;51.622;7.046;2022-09-09T17:19:02;15.90;99.90
5118;DHT22;2578;51.622;7.046;2022-09-09T17:21:30;15.90;99.90
5118;DHT22;2578;51.622;7.046;2022-09-09T17:23:56;15.90;99.90
5118;DHT22;2578;51.622;7.046;2022-09-09T17:26:26;16.10;99.90
5118;DHT22;2578;51.622;7.046;2022-09-09T17:28:52;15.90;99.90
5118;DHT22;2578;51.622;7.046;2022-09-09T17:31:18;15.80;99.90
5118;DHT22;2578;51.622;7.046;2022-09-09T17:33:47;15.80;99.90
5118;DHT22;2578;51.622;7.046;2022-09-09T17:36:21;15.80;99.90
5118;DHT22;2578;51.622;7.046;2022-09-09T17:38:47;15.80;99.90
5118;DHT22;2578;51.622;7.046;2022-09-09T17:41:19;15.70;99.90
5118;DHT22;2578;51.622;7.046;2022-09-09T17:43:46;15.70;99.90
5118;DHT22;2578;51.622;7.046;2022-09-09T17:46:17;15.70;99.90
5118;DHT22;2578;51.622;7.046;2022-09-09T17:48:45;15.70;99.90
5118;DHT22;2578;51.622;7.046;2022-09-09T17:51:19;15.60;99.90
5118;DHT22;2578;51.622;7.046;2022-09-09T17:53:50;15.60;99.90
5118;DHT22;2578;51.622;7.046;2022-09-09T17:56:18;15.60;99.90
5118;DHT22;2578;51.622;7.046;2022-09-09T17:58:46;15.60;99.90
5118;DHT22;2578;51.622;7.046;2022-09-09T18:01:14;15.60;99.90
5118;DHT22;2578;51.622;7.046;2022-09-09T18:03:43;15.80;99.90
5118;DHT22;2578;51.622;7.046;2022-09-09T18:06:11;15.70;99.90
5118;DHT22;2578;51.622;7.046;2022-09-09T18:08:41;15.70;99.90
5118;DHT22;2578;51.622;7.046;2022-09-09T18:11:07;15.80;99.90
5118;DHT22;2578;51.622;7.046;2022-09-09T18:13:34;15.80;99.90
5118;DHT22;2578;51.622;7.046;2022-09-09T18:16:00;15.80;99.90
5118;DHT22;2578;51.622;7.046;2022-09-09T18:18:26;15.80;99.90
5118;DHT22;2578;51.622;7.046;2022-09-09T18:21:01;15.90;99.90
5118;DHT22;2578;51.622;7.046;2022-09-09T18:23:28;15.90;99.90
5118;DHT22;2578;51.622;7.046;2022-09-09T18:25:54;15.90;99.90
5118;DHT22;2578;51.622;7.046;2022-09-09T18:28:19;16.00;99.90
5118;DHT22;2578;51.622;7.046;2022-09-09T18:30:45;16.00;99.90
5118;DHT22;2578;51.622;7.046;2022-09-09T18:33:11;15.90;99.90
5118;DHT22;2578;51.622;7.046;2022-09-09T18:35:37;15.90;99.90
5118;DHT22;2578;51.622;7.046;2022-09-09T18:38:03;15.80;99.90
5118;DHT22;2578;51.622;7.046;2022-09-09T18:40:32;15.80;99.90
5118;DHT22;2578;51.622;7.046;2022-09-09T18:42:58;15.80;99.90
5118;DHT22;2578;51.622;7.046;2022-09-09T18:45:23;15.80;99.90
5118;DHT22;2578;51.622;7.046;2022-09-09T18:47:49;15.70;99.90
5118;DHT22;2578;51.622;7.046;2022-09-09T18:50:15;15.70;99.90